Time;durP1;ratioP1;P1;durP2;ratioP2;P2;SDS_P1;SDS_P2;PMS_P1;PMS_P2;Temp;Humidity;BMP_temperature;BMP_pressure;BME280_temperature;BME280_humidity;BME280_pressure;Samples;Min_cycle;Max_cycle;Signal;HPM_P1;HPM_P2
2022/10/30 00:00:51;;;;;;;24.00;10.15;;;;;;;15.15;81.40;101626.28;5063791;28;20117;-66
2022/10/30 00:03:17;;;;;;;18.30;10.60;;;;;;;15.14;81.45;101630.66;5063345;28;20095;-66
2022/10/30 00:05:48;;;;;;;21.73;10.25;;;;;;;15.11;81.66;101623.63;5063509;28;20031;-66
2022/10/30 00:08:15;;;;;;;20.80;10.00;;;;;;;15.09;81.36;101629.69;5063758;28;20060;-66
2022/10/30 00:10:41;;;;;;;17.95;9.73;;;;;;;15.08;81.65;101633.19;5063608;28;20259;-66
2022/10/30 00:13:07;;;;;;;21.73;11.60;;;;;;;15.08;81.78;101630.56;5063197;28;20109;-66
2022/10/30 00:15:33;;;;;;;17.80;10.15;;;;;;;15.05;81.64;101634.00;5063267;28;20025;-66
2022/10/30 00:17:58;;;;;;;17.38;9.88;;;;;;;15.01;81.50;101632.19;5063409;28;20163;-66
2022/10/30 00:20:23;;;;;;;21.10;10.32;;;;;;;14.94;81.77;101619.81;5063323;28;20699;-66
2022/10/30 00:22:49;;;;;;;19.58;10.48;;;;;;;14.93;82.12;101636.41;5063170;28;20056;-66
2022/10/30 00:25:14;;;;;;;26.50;10.90;;;;;;;14.92;82.13;101634.66;5078347;28;20029;-66
2022/10/30 00:27:39;;;;;;;21.40;10.50;;;;;;;14.91;82.01;101639.00;5063126;28;20228;-66
2022/10/30 00:30:05;;;;;;;23.63;10.38;;;;;;;14.86;82.33;101626.66;5063084;28;20287;-66
2022/10/30 00:32:30;;;;;;;23.50;11.20;;;;;;;14.81;82.86;101625.69;5063061;28;20053;-66
2022/10/30 00:34:56;;;;;;;20.73;10.50;;;;;;;14.77;82.21;101633.50;5063138;28;20032;-66
2022/10/30 00:37:21;;;;;;;24.15;10.30;;;;;;;14.73;81.77;101629.06;5062912;28;20049;-66
2022/10/30 00:39:46;;;;;;;21.30;10.60;;;;;;;14.70;83.12;101622.84;5062263;28;20021;-66
2022/10/30 00:42:13;;;;;;;26.23;11.13;;;;;;;14.69;82.77;101623.72;5062958;28;20020;-66
2022/10/30 00:44:44;;;;;;;19.00;9.88;;;;;;;14.59;82.43;101626.13;5062744;28;20062;-66
2022/10/30 00:47:27;;;;;;;20.63;10.82;;;;;;;14.54;82.73;101624.25;5062842;28;20027;-66
2022/10/30 00:49:58;;;;;;;20.10;10.60;;;;;;;14.52;83.92;101626.84;5078222;28;20090;-66
2022/10/30 00:52:27;;;;;;;21.95;11.07;;;;;;;14.53;83.40;101625.13;5062395;28;20016;-66
2022/10/30 00:54:55;;;;;;;22.77;10.55;;;;;;;14.51;83.31;101624.19;5062743;28;20029;-66
2022/10/30 00:57:21;;;;;;;17.83;10.70;;;;;;;14.47;83.72;101622.38;5062598;28;20071;-66
2022/10/30 00:59:47;;;;;;;20.38;10.90;;;;;;;14.44;84.20;101617.97;5062727;28;20175;-66
2022/10/30 01:02:12;;;;;;;21.35;10.90;;;;;;;14.38;84.27;101623.97;5062522;28;20291;-66
2022/10/30 01:04:39;;;;;;;21.15;11.15;;;;;;;14.35;83.92;101623.91;5062642;28;20028;-66
2022/10/30 01:07:09;;;;;;;20.33;10.38;;;;;;;14.31;84.06;101622.06;5061411;28;20092;-75
2022/10/30 01:09:36;;;;;;;20.25;10.48;;;;;;;14.29;84.32;101623.75;5062652;28;20033;-75
2022/10/30 01:12:02;;;;;;;22.42;10.90;;;;;;;14.31;84.32;101627.31;5062348;28;20322;-75
2022/10/30 01:14:27;;;;;;;21.48;11.35;;;;;;;14.24;83.82;101625.41;5062534;28;20092;-75
2022/10/30 01:17:09;;;;;;;24.20;11.18;;;;;;;14.25;84.03;101628.06;5062368;28;20175;-75
2022/10/30 01:20:11;;;;;;;18.75;9.82;;;;;;;14.25;83.90;101633.31;5062552;28;20272;-75
2022/10/30 01:22:50;;;;;;;20.83;9.63;;;;;;;14.21;83.58;101631.47;5062949;28;20059;-75
2022/10/30 01:25:27;;;;;;;20.55;10.85;;;;;;;14.18;84.48;101627.88;5062270;28;20306;-75
2022/10/30 01:28:30;;;;;;;19.08;10.32;;;;;;;14.14;84.41;101634.81;5062511;28;20090;-75
2022/10/30 01:31:04;;;;;;;20.80;9.95;;;;;;;14.09;84.63;101626.84;5062612;28;20029;-75
2022/10/30 01:33:51;;;;;;;23.83;10.95;;;;;;;14.09;85.35;101625.94;5062110;28;20108;-75
2022/10/30 01:36:35;;;;;;;20.00;10.43;;;;;;;14.03;85.20;101633.69;5062304;28;20028;-75
2022/10/30 01:39:08;;;;;;;21.23;9.88;;;;;;;14.00;84.96;101634.50;5062322;28;20032;-75
2022/10/30 01:41:34;;;;;;;21.58;10.63;;;;;;;13.97;85.86;101631.81;5061230;28;20204;-75
2022/10/30 01:44:05;;;;;;;27.20;12.23;;;;;;;13.96;85.62;101642.25;5062139;28;20036;-76
2022/10/30 01:46:44;;;;;;;23.92;10.82;;;;;;;13.96;85.73;101643.16;5062343;28;20032;-75
2022/10/30 01:49:31;;;;;;;24.55;11.30;;;;;;;13.96;85.25;101640.53;5062041;28;20033;-75
2022/10/30 01:52:21;;;;;;;19.48;10.10;;;;;;;13.96;85.50;101635.31;5065304;28;20281;-75
2022/10/30 01:55:15;;;;;;;22.77;11.00;;;;;;;13.94;86.02;101642.22;5081649;28;20222;-75
2022/10/30 01:57:50;;;;;;;23.48;10.43;;;;;;;13.94;85.67;101642.22;5066078;28;20028;-75
2022/10/30 02:00:16;;;;;;;21.73;11.43;;;;;;;13.91;85.74;101647.41;5065864;28;20037;-75
2022/10/30 02:02:42;;;;;;;24.60;10.52;;;;;;;13.93;85.58;101642.19;5065908;28;20056;-75
2022/10/30 02:05:12;;;;;;;27.98;11.75;;;;;;;13.92;86.07;101646.56;5065767;28;20228;-75
2022/10/30 02:07:37;;;;;;;;;;;;;;;14.01;84.70;101646.75;5066385;28;20037;-66
2022/10/30 02:10:03;;;;;;;21.38;10.23;;;;;;;13.92;85.44;101649.19;5065788;28;19949;-66
2022/10/30 02:12:28;;;;;;;23.48;10.70;;;;;;;13.87;85.61;101650.81;5065723;28;20032;-66
2022/10/30 02:14:57;;;;;;;21.30;10.65;;;;;;;13.82;85.81;101652.44;5065668;28;20024;-66
2022/10/30 02:17:24;;;;;;;21.40;9.25;;;;;;;13.76;85.20;101647.03;5065491;28;20047;-66
2022/10/30 02:19:49;;;;;;;20.42;10.18;;;;;;;13.71;85.36;101644.31;5065564;28;20055;-66
2022/10/30 02:22:16;;;;;;;20.00;11.13;;;;;;;13.66;85.12;101638.97;5065686;28;20210;-66
2022/10/30 02:24:42;;;;;;;19.20;10.77;;;;;;;13.62;85.46;101638.88;5065534;28;20028;-66
2022/10/30 02:27:08;;;;;;;19.65;11.20;;;;;;;13.57;85.39;101646.63;5065414;28;20024;-66
2022/10/30 02:29:33;;;;;;;20.42;10.75;;;;;;;13.55;85.70;101650.94;5065326;28;20048;-66
2022/10/30 02:31:58;;;;;;;20.90;10.95;;;;;;;13.54;85.84;101657.00;5065333;28;20466;-66
2022/10/30 02:34:24;;;;;;;18.67;10.05;;;;;;;13.49;85.57;101656.03;5065093;28;20355;-66
2022/10/30 02:36:49;;;;;;;23.85;11.00;;;;;;;13.50;85.56;101655.19;5065535;28;20033;-66
2022/10/30 02:39:14;;;;;;;23.40;11.65;;;;;;;13.45;85.45;101652.44;5065280;28;20176;-66
2022/10/30 02:41:39;;;;;;;23.00;10.85;;;;;;;13.43;85.70;101659.38;5065469;28;20179;-66
2022/10/30 02:44:08;;;;;;;19.35;9.82;;;;;;;13.43;85.82;101658.50;5065254;28;20029;-66
2022/10/30 02:46:33;;;;;;;20.45;10.68;;;;;;;13.37;86.17;101665.34;5065063;28;20658;-66
2022/10/30 02:48:59;;;;;;;22.00;11.15;;;;;;;13.36;85.82;101663.56;5065018;28;20040;-66
2022/10/30 02:51:24;;;;;;;20.05;11.13;;;;;;;13.33;86.15;101657.34;5064765;28;20068;-66
2022/10/30 02:53:50;;;;;;;19.90;11.32;;;;;;;13.30;86.74;101667.72;5065018;28;20052;-66
2022/10/30 02:56:15;;;;;;;21.08;10.95;;;;;;;13.32;86.98;101660.78;5064752;28;20028;-66
2022/10/30 02:58:41;;;;;;;20.73;10.38;;;;;;;13.31;87.23;101654.69;5064768;28;20060;-66
2022/10/30 03:01:15;;;;;;;19.92;10.77;;;;;;;13.31;87.39;101659.00;5064527;28;20028;-66
2022/10/30 03:03:41;;;;;;;20.38;10.90;;;;;;;13.32;87.41;101659.06;5063890;28;20091;-66
2022/10/30 03:06:09;;;;;;;22.58;11.27;;;;;;;13.31;88.05;101654.69;5064636;28;20028;-66
2022/10/30 03:08:35;;;;;;;24.15;12.10;;;;;;;13.35;87.12;101645.19;5064838;28;20059;-75
2022/10/30 03:11:15;;;;;;;21.23;11.48;;;;;;;13.35;87.30;101646.09;5064703;28;20025;-75
2022/10/30 03:13:41;;;;;;;18.08;10.70;;;;;;;13.33;88.01;101642.50;5064661;28;20020;-75
2022/10/30 03:16:09;;;;;;;23.95;10.82;;;;;;;13.34;88.35;101644.31;5064616;28;20095;-76
2022/10/30 03:18:35;;;;;;;25.42;12.20;;;;;;;13.34;88.10;101649.56;5064707;28;20071;-75
2022/10/30 03:21:03;;;;;;;26.85;12.60;;;;;;;13.32;87.51;101655.56;5064580;28;20271;-75
2022/10/30 03:23:29;;;;;;;22.33;11.90;;;;;;;13.32;87.60;101645.09;5064421;28;20036;-75
2022/10/30 03:25:56;;;;;;;22.55;11.57;;;;;;;13.30;88.35;101633.72;5064278;28;20021;-75
2022/10/30 03:28:23;;;;;;;21.90;11.05;;;;;;;13.32;88.56;101643.34;5064608;28;20063;-76
2022/10/30 03:30:50;;;;;;;25.00;11.93;;;;;;;13.32;88.33;101651.19;5064387;28;20194;-75
2022/10/30 03:33:15;;;;;;;21.67;11.10;;;;;;;13.35;87.93;101640.88;5064052;28;20045;-75
2022/10/30 03:35:44;;;;;;;25.65;11.27;;;;;;;13.31;88.56;101649.44;5064310;28;20092;-76
2022/10/30 03:38:11;;;;;;;25.87;11.67;;;;;;;13.32;88.43;101645.97;5064132;28;20071;-66
2022/10/30 03:40:37;;;;;;;21.20;11.45;;;;;;;13.29;88.40;101640.66;5064075;28;20284;-66
2022/10/30 03:43:02;;;;;;;23.88;11.65;;;;;;;13.31;88.24;101643.31;5064099;28;20059;-66
2022/10/30 03:45:27;;;;;;;24.35;11.57;;;;;;;13.28;88.22;101636.28;5064134;28;20028;-66
2022/10/30 03:47:53;;;;;;;22.70;11.70;;;;;;;13.23;88.17;101641.38;5063967;28;20024;-66
2022/10/30 03:50:18;;;;;;;25.85;11.52;;;;;;;13.24;88.01;101644.91;5063703;28;20066;-66
2022/10/30 03:52:44;;;;;;;20.58;11.10;;;;;;;13.27;88.86;101657.19;5063778;28;20214;-66
2022/10/30 03:55:09;;;;;;;23.85;11.30;;;;;;;13.28;89.39;101651.09;5063732;28;20045;-66
2022/10/30 03:57:37;;;;;;;31.42;12.32;;;;;;;13.32;89.31;101652.94;5063745;28;20142;-66
2022/10/30 04:00:04;;;;;;;22.98;12.02;;;;;;;13.33;88.83;101654.72;5063569;28;20429;-66
2022/10/30 04:02:30;;;;;;;25.33;13.25;;;;;;;13.31;88.23;101649.44;5063505;28;20180;-66
2022/10/30 04:04:55;;;;;;;23.63;11.60;;;;;;;13.29;88.01;101665.94;5063805;28;20322;-66
2022/10/30 04:07:20;;;;;;;23.67;11.70;;;;;;;13.25;88.20;101664.97;5063405;28;20187;-75
2022/10/30 04:09:45;;;;;;;24.10;12.05;;;;;;;13.20;88.43;101666.59;5063730;28;20286;-75
2022/10/30 04:12:11;;;;;;;26.67;12.00;;;;;;;13.16;88.48;101669.97;5063248;28;20024;-75
2022/10/30 04:14:36;;;;;;;22.90;10.70;;;;;;;13.12;88.49;101670.75;5078190;28;20168;-75
2022/10/30 04:17:04;;;;;;;28.05;11.57;;;;;;;13.09;88.74;101666.31;5062785;28;20139;-75
2022/10/30 04:19:30;;;;;;;24.13;11.10;;;;;;;13.09;88.78;101661.06;5063012;28;20037;-75
2022/10/30 04:21:55;;;;;;;22.63;11.80;;;;;;;13.10;88.87;101659.34;5078524;28;20096;-75
2022/10/30 04:24:21;;;;;;;24.02;12.25;;;;;;;13.09;88.81;101653.22;5062916;28;20025;-75
2022/10/30 04:26:46;;;;;;;23.42;11.13;;;;;;;13.08;89.08;101653.19;5062705;28;20025;-75
2022/10/30 04:29:11;;;;;;;24.58;11.77;;;;;;;13.07;89.00;101657.53;5062808;28;20283;-75
2022/10/30 04:31:36;;;;;;;23.15;11.55;;;;;;;13.05;88.93;101657.50;5062752;28;20025;-75
2022/10/30 04:34:02;;;;;;;24.98;11.75;;;;;;;13.05;89.69;101657.50;5063146;28;20245;-75
2022/10/30 04:36:32;;;;;;;21.02;11.77;;;;;;;13.04;89.45;101660.97;5063144;28;20345;-75
2022/10/30 04:38:58;;;;;;;22.88;12.25;;;;;;;13.03;89.65;101659.22;5063157;28;20188;-75
2022/10/30 04:41:24;;;;;;;24.30;13.45;;;;;;;13.04;89.33;101658.34;5062837;28;20088;-75
2022/10/30 04:43:50;;;;;;;25.08;11.57;;;;;;;13.02;90.16;101646.97;5063272;28;20024;-75
2022/10/30 04:46:16;;;;;;;22.52;11.90;;;;;;;13.01;90.19;101642.56;5063046;28;20156;-75
2022/10/30 04:48:41;;;;;;;24.55;11.30;;;;;;;13.01;90.43;101644.31;5063387;28;20094;-75
2022/10/30 04:51:07;;;;;;;25.23;12.00;;;;;;;13.00;91.26;101638.16;5062909;28;20031;-75
2022/10/30 04:53:33;;;;;;;28.92;12.43;;;;;;;13.03;92.04;101633.03;5062419;28;20223;-75
2022/10/30 04:55:58;;;;;;;25.35;12.43;;;;;;;13.05;91.90;101617.38;5062630;28;20044;-75
2022/10/30 04:58:23;;;;;;;22.23;11.65;;;;;;;13.05;91.50;101614.75;5062480;28;20039;-74
2022/10/30 05:00:49;;;;;;;23.15;11.80;;;;;;;13.07;91.41;101627.88;5062646;28;20067;-74
2022/10/30 05:03:18;;;;;;;25.42;11.85;;;;;;;13.07;91.25;101627.88;5062651;28;20021;-75
2022/10/30 05:05:44;;;;;;;24.67;12.25;;;;;;;13.07;90.83;101628.75;5062658;28;20040;-75
2022/10/30 05:08:09;;;;;;;24.95;11.93;;;;;;;13.09;90.66;101624.44;5062599;28;20095;-75
2022/10/30 05:10:38;;;;;;;23.45;11.70;;;;;;;13.10;90.56;101627.97;5062675;28;20029;-75
2022/10/30 05:13:04;;;;;;;24.77;11.48;;;;;;;13.09;90.33;101620.94;5062640;28;20051;-75
2022/10/30 05:15:29;;;;;;;24.88;12.05;;;;;;;13.09;90.28;101631.41;5062602;28;20335;-75
2022/10/30 05:17:54;;;;;;;23.00;11.98;;;;;;;13.11;90.18;101624.50;5062404;28;20052;-75
2022/10/30 05:20:20;;;;;;;23.88;12.35;;;;;;;13.12;90.85;101621.03;5062353;28;20096;-74
2022/10/30 05:22:45;;;;;;;21.88;12.02;;;;;;;13.14;90.39;101629.81;5062474;28;20024;-76
2022/10/30 05:25:11;;;;;;;23.85;12.18;;;;;;;13.12;90.01;101636.72;5078396;28;20088;-75
2022/10/30 05:27:36;;;;;;;24.90;11.07;;;;;;;13.09;89.72;101637.53;5066681;28;20032;-75
2022/10/30 05:30:01;;;;;;;24.08;11.80;;;;;;;13.07;89.92;101633.13;5066403;28;20222;-75
2022/10/30 05:32:27;;;;;;;25.98;12.00;;;;;;;13.04;89.82;101633.91;5066169;28;20348;-75
2022/10/30 05:34:53;;;;;;;23.67;12.00;;;;;;;12.97;89.41;101643.31;5066510;28;20052;-75
2022/10/30 05:37:18;;;;;;;23.67;11.40;;;;;;;12.96;89.87;101646.81;5066356;28;20041;-75
2022/10/30 05:39:44;;;;;;;26.55;12.50;;;;;;;12.92;89.79;101642.34;5066324;28;20032;-75
2022/10/30 05:42:09;;;;;;;27.27;12.57;;;;;;;12.89;89.67;101650.09;5066677;28;20034;-76
2022/10/30 05:44:34;;;;;;;22.80;12.07;;;;;;;12.85;89.65;101645.63;5066227;28;20120;-75
2022/10/30 05:46:59;;;;;;;24.45;12.38;;;;;;;12.82;89.58;101642.94;5066412;28;20104;-66
2022/10/30 05:49:25;;;;;;;25.60;13.38;;;;;;;12.77;89.82;101642.78;5066044;28;20044;-66
2022/10/30 05:51:50;;;;;;;27.90;12.88;;;;;;;12.77;89.88;101636.69;5065955;28;20028;-66
2022/10/30 05:54:15;;;;;;;26.83;12.65;;;;;;;12.75;89.43;101636.63;5065785;28;20036;-66
2022/10/30 05:56:41;;;;;;;24.98;12.73;;;;;;;12.75;89.31;101636.63;5066069;28;20066;-66
2022/10/30 05:59:06;;;;;;;33.38;12.63;;;;;;;12.74;89.95;101634.84;5065950;28;20025;-66
2022/10/30 06:01:31;;;;;;;23.85;11.98;;;;;;;12.73;89.59;101637.44;5066008;28;20082;-66
2022/10/30 06:03:57;;;;;;;23.13;12.68;;;;;;;12.70;89.49;101633.91;5065938;28;20028;-66
2022/10/30 06:06:22;;;;;;;20.75;11.77;;;;;;;12.67;89.23;101631.22;5065708;28;20033;-66
2022/10/30 06:08:47;;;;;;;22.20;11.00;;;;;;;12.61;88.78;101637.97;5065980;28;20017;-66
2022/10/30 06:11:12;;;;;;;23.23;11.43;;;;;;;12.56;88.50;101635.25;5065659;28;20172;-66
2022/10/30 06:13:39;;;;;;;23.92;11.95;;;;;;;12.49;88.71;101633.31;5065755;28;20044;-66
2022/10/30 06:16:04;;;;;;;27.42;12.70;;;;;;;12.44;89.28;101650.56;5065634;28;20047;-66
2022/10/30 06:18:30;;;;;;;23.42;12.20;;;;;;;12.39;89.64;101657.41;5065747;28;20025;-75
2022/10/30 06:20:55;;;;;;;27.58;12.55;;;;;;;12.34;89.68;101649.44;5065617;28;20021;-75
2022/10/30 06:23:20;;;;;;;22.30;10.98;;;;;;;12.24;88.95;101637.81;5065773;28;20028;-75
2022/10/30 06:25:46;;;;;;;26.20;11.32;;;;;;;12.15;89.44;101647.97;5065490;28;20207;-75
2022/10/30 06:28:12;;;;;;;24.80;11.07;;;;;;;12.10;90.08;101634.78;5065374;28;20092;-75
2022/10/30 06:30:38;;;;;;;22.27;11.57;;;;;;;12.04;89.75;101634.59;5065359;28;20036;-75
2022/10/30 06:33:04;;;;;;;21.17;10.35;;;;;;;12.02;89.67;101633.69;5065262;28;20076;-75
2022/10/30 06:35:30;;;;;;;23.70;11.35;;;;;;;12.00;89.80;101640.56;5065707;28;20033;-75
2022/10/30 06:37:58;;;;;;;21.25;11.30;;;;;;;11.98;89.94;101640.53;5065358;28;20024;-75
2022/10/30 06:40:25;;;;;;;22.33;11.90;;;;;;;11.96;89.73;101637.00;5080703;28;20074;-75
2022/10/30 06:42:52;;;;;;;22.58;11.05;;;;;;;11.94;90.22;101636.03;5065313;28;20025;-75
2022/10/30 06:45:20;;;;;;;26.48;11.85;;;;;;;11.94;90.40;101641.25;5065037;28;20017;-75
2022/10/30 06:47:45;;;;;;;26.20;12.77;;;;;;;11.93;90.25;101636.88;5065088;28;20187;-66
2022/10/30 06:50:15;;;;;;;22.25;11.32;;;;;;;11.93;90.46;101636.88;5065060;28;20036;-66
2022/10/30 06:52:40;;;;;;;21.67;12.00;;;;;;;11.93;90.70;101631.66;5065052;28;20037;-66
2022/10/30 06:55:06;;;;;;;22.83;11.18;;;;;;;11.93;90.35;101639.47;5080497;28;20304;-66
2022/10/30 06:57:31;;;;;;;24.80;11.77;;;;;;;11.92;90.48;101634.19;5065052;28;20080;-66
2022/10/30 06:59:57;;;;;;;22.80;11.50;;;;;;;11.93;90.37;101626.44;5065134;28;20153;-66
2022/10/30 07:02:22;;;;;;;23.08;10.88;;;;;;;11.95;90.95;101630.00;5064814;28;20029;-66
2022/10/30 07:04:48;;;;;;;21.50;12.00;;;;;;;11.96;91.50;101618.72;5065035;28;20226;-66
2022/10/30 07:07:14;;;;;;;25.73;11.63;;;;;;;11.94;91.58;101617.75;5064830;28;20021;-65
2022/10/30 07:09:39;;;;;;;23.20;12.25;;;;;;;11.95;91.51;101619.53;5064785;28;20075;-66
2022/10/30 07:12:05;;;;;;;19.50;11.32;;;;;;;11.96;91.58;101609.97;5064277;28;20028;-66
2022/10/30 07:14:30;;;;;;;22.88;11.68;;;;;;;11.94;91.87;101622.09;5064520;28;20037;-66
2022/10/30 07:16:56;;;;;;;23.67;12.23;;;;;;;11.94;91.71;101614.28;5064395;28;20047;-75
2022/10/30 07:19:21;;;;;;;23.17;12.13;;;;;;;11.95;92.15;101622.16;5064413;28;20029;-75
2022/10/30 07:21:47;;;;;;;23.33;12.00;;;;;;;11.96;92.36;101623.94;5064421;28;20028;-74
2022/10/30 07:24:12;;;;;;;23.73;12.85;;;;;;;11.95;92.28;101619.53;5064403;28;20298;-75
2022/10/30 07:26:38;;;;;;;25.75;12.65;;;;;;;11.96;92.44;101623.03;5064185;28;20279;-75
2022/10/30 07:29:04;;;;;;;24.45;12.15;;;;;;;11.96;92.41;101626.53;5064356;28;20264;-75
2022/10/30 07:31:29;;;;;;;24.17;12.70;;;;;;;11.96;92.28;101623.94;5064079;28;20032;-75
2022/10/30 07:33:55;;;;;;;25.33;13.48;;;;;;;11.99;92.85;101626.63;5079468;28;20226;-75
2022/10/30 07:36:20;;;;;;;26.83;14.07;;;;;;;12.02;92.71;101630.16;5063886;28;20029;-75
2022/10/30 07:38:47;;;;;;;27.90;14.60;;;;;;;12.03;92.65;101627.59;5064082;28;20264;-75
2022/10/30 07:41:12;;;;;;;30.33;14.10;;;;;;;12.04;92.80;101641.56;5063978;28;20044;-76
2022/10/30 07:43:38;;;;;;;27.98;14.20;;;;;;;12.05;92.81;101640.72;5064015;28;20187;-75
2022/10/30 07:46:03;;;;;;;30.38;14.85;;;;;;;12.05;92.94;101625.94;5064029;28;20091;-74
2022/10/30 07:48:28;;;;;;;26.77;15.10;;;;;;;12.07;92.88;101624.25;5063255;28;20092;-66
2022/10/30 07:50:54;;;;;;;26.80;15.02;;;;;;;12.11;93.81;101625.25;5063928;28;20028;-66
2022/10/30 07:53:19;;;;;;;30.83;15.32;;;;;;;12.14;93.80;101622.72;5063911;28;20260;-66
2022/10/30 07:55:44;;;;;;;29.13;14.85;;;;;;;12.18;94.09;101621.97;5063807;28;20020;-66
2022/10/30 07:58:10;;;;;;;25.17;14.23;;;;;;;12.22;93.53;101623.81;5064128;28;20037;-65
2022/10/30 08:00:35;;;;;;;30.67;15.27;;;;;;;12.25;93.97;101633.47;5063818;28;20025;-66
2022/10/30 08:03:00;;;;;;;28.98;15.50;;;;;;;12.27;93.66;101632.69;5063600;28;20025;-66
2022/10/30 08:05:26;;;;;;;31.27;15.30;;;;;;;12.29;93.93;101633.59;5063682;28;20023;-66
2022/10/30 08:07:51;;;;;;;25.95;14.82;;;;;;;12.32;94.48;101631.06;5063438;28;20029;-66
2022/10/30 08:10:16;;;;;;;28.90;15.98;;;;;;;12.37;94.14;101632.94;5063493;28;20040;-66
2022/10/30 08:12:43;;;;;;;31.98;16.63;;;;;;;12.41;94.55;101626.97;5063507;28;20036;-66
2022/10/30 08:15:09;;;;;;;30.55;16.58;;;;;;;12.44;94.90;101619.19;5078936;28;20303;-66
2022/10/30 08:17:46;;;;;;;28.35;16.27;;;;;;;12.48;94.72;101615.84;5063362;28;20104;-75
2022/10/30 08:20:13;;;;;;;30.38;15.70;;;;;;;12.53;94.63;101615.13;5063171;28;20024;-76
2022/10/30 08:22:48;;;;;;;36.97;18.52;;;;;;;12.58;96.59;101606.53;5063213;28;20028;-75
2022/10/30 08:25:15;;;;;;;32.50;16.60;;;;;;;12.62;96.68;101605.78;5063200;28;20032;-75
2022/10/30 08:27:50;;;;;;;31.38;15.68;;;;;;;12.67;96.15;101612.00;5063047;28;20055;-75
2022/10/30 08:30:15;;;;;;;32.40;16.42;;;;;;;12.72;96.08;101617.38;5062824;28;20088;-75
2022/10/30 08:32:40;;;;;;;33.20;15.73;;;;;;;12.76;96.36;101621.81;5062867;28;20306;-75
2022/10/30 08:35:06;;;;;;;28.63;15.98;;;;;;;12.81;95.93;101635.91;5063007;28;20025;-76
2022/10/30 08:37:31;;;;;;;30.70;16.45;;;;;;;12.87;97.48;101634.38;5062955;28;20080;-75
2022/10/30 08:39:57;;;;;;;31.50;17.08;;;;;;;12.92;97.07;101631.88;5063083;28;20021;-75
2022/10/30 08:42:22;;;;;;;34.38;17.00;;;;;;;12.97;97.42;101627.63;5062620;28;20036;-75
2022/10/30 08:44:47;;;;;;;40.17;18.60;;;;;;;13.03;97.77;101613.81;5062957;28;20244;-75
2022/10/30 08:47:12;;;;;;;30.45;17.52;;;;;;;13.09;97.94;101615.72;5062604;28;20032;-66
2022/10/30 08:49:38;;;;;;;32.30;16.73;;;;;;;13.11;97.38;101617.53;5062957;28;20044;-66
2022/10/30 08:52:07;;;;;;;36.00;17.98;;;;;;;13.16;96.87;101628.13;5062547;28;20029;-66
2022/10/30 08:54:32;;;;;;;31.83;16.00;;;;;;;13.24;98.33;101621.34;5062696;28;20049;-66
2022/10/30 08:56:58;;;;;;;30.60;16.65;;;;;;;13.31;98.07;101620.66;5063209;28;20025;-66
2022/10/30 08:59:23;;;;;;;33.10;15.82;;;;;;;13.36;97.53;101624.28;5062447;28;20021;-66
2022/10/30 09:01:49;;;;;;;31.15;14.43;;;;;;;13.41;97.11;101621.78;5062198;28;20059;-66
2022/10/30 09:04:15;;;;;;;33.85;14.73;;;;;;;13.48;96.82;101622.81;5077731;28;20009;-66
2022/10/30 09:06:40;;;;;;;27.33;14.10;;;;;;;13.56;96.47;101623.91;5062502;28;20035;-66
2022/10/30 09:09:05;;;;;;;32.47;15.20;;;;;;;13.64;95.81;101621.47;5062771;28;20023;-66
2022/10/30 09:11:31;;;;;;;31.67;14.13;;;;;;;13.73;96.37;101621.69;5062496;28;20035;-66
2022/10/30 09:13:56;;;;;;;29.85;13.90;;;;;;;13.82;95.36;101613.16;5062611;28;20027;-66
2022/10/30 09:16:21;;;;;;;36.75;14.23;;;;;;;13.91;94.75;101614.22;5062608;28;20088;-66
2022/10/30 09:18:47;;;;;;;29.77;13.73;;;;;;;14.01;94.52;101614.44;5062465;28;20017;-66
2022/10/30 09:21:12;;;;;;;29.15;13.85;;;;;;;14.10;95.64;101606.75;5062432;28;20095;-66
2022/10/30 09:23:37;;;;;;;30.40;13.70;;;;;;;14.21;95.54;101609.63;5062428;28;20067;-66
2022/10/30 09:26:02;;;;;;;29.08;13.52;;;;;;;14.33;94.52;101594.13;5062400;28;20350;-66
2022/10/30 09:28:28;;;;;;;29.50;13.25;;;;;;;14.47;94.46;101601.38;5062315;28;20025;-66
2022/10/30 09:30:55;;;;;;;28.40;13.40;;;;;;;14.62;94.92;101604.34;5061178;28;20191;-66
2022/10/30 09:33:21;;;;;;;30.55;12.77;;;;;;;14.71;92.83;101596.63;5061993;28;20033;-66
2022/10/30 09:35:46;;;;;;;29.10;12.73;;;;;;;14.80;93.12;101600.31;5062352;28;20036;-66
2022/10/30 09:38:11;;;;;;;33.00;13.48;;;;;;;14.87;92.77;101604.81;5062346;28;20029;-66
2022/10/30 09:40:52;;;;;;;30.02;13.30;;;;;;;14.94;93.12;101604.06;5062388;28;20263;-66
2022/10/30 09:43:27;;;;;;;28.77;13.55;;;;;;;14.99;93.88;101599.78;5062217;28;20024;-66
2022/10/30 09:46:21;;;;;;;28.60;12.10;;;;;;;15.04;93.13;101603.38;5061048;28;20052;-66
2022/10/30 09:49:27;;;;;;;29.35;13.43;;;;;;;15.10;92.76;101600.84;5062248;28;20036;-66
2022/10/30 09:52:12;;;;;;;28.27;12.65;;;;;;;15.23;91.07;101624.69;5062132;28;20037;-66
2022/10/30 09:54:51;;;;;;;31.00;13.32;;;;;;;15.26;89.41;101625.59;5062156;28;20106;-66
2022/10/30 09:57:37;;;;;;;33.75;13.07;;;;;;;15.33;90.12;101633.59;5062000;28;20029;-75
2022/10/30 10:00:12;;;;;;;33.58;12.90;;;;;;;15.39;90.10;101634.56;5061873;28;20029;-75
2022/10/30 10:03:09;;;;;;;34.78;14.23;;;;;;;15.46;89.66;101638.19;5062268;28;20025;-75
2022/10/30 10:05:41;;;;;;;36.25;14.02;;;;;;;15.50;88.20;101639.13;5062042;28;20029;-75
2022/10/30 10:08:15;;;;;;;35.45;13.23;;;;;;;15.54;87.86;101643.56;5061942;28;20041;-75
2022/10/30 10:10:48;;;;;;;30.00;13.43;;;;;;;15.53;87.57;101626.94;5077600;28;20029;-75
2022/10/30 10:13:42;;;;;;;30.13;14.02;;;;;;;15.58;87.33;101629.63;5065257;28;20057;-75
2022/10/30 10:16:19;;;;;;;32.42;14.75;;;;;;;15.65;88.04;101620.97;5065810;28;20021;-75
2022/10/30 10:18:48;;;;;;;31.35;13.38;;;;;;;15.70;88.26;101616.69;5065710;28;20040;-75
2022/10/30 10:21:22;;;;;;;;;;;;;;;15.79;89.11;101623.84;5065989;28;20036;-75
2022/10/30 10:23:50;;;;;;;35.20;14.80;;;;;;;15.89;86.99;101622.22;5065696;28;19904;-75
2022/10/30 10:26:26;;;;;;;35.92;15.00;;;;;;;15.99;86.08;101621.50;5065514;28;20040;-66
2022/10/30 10:29:09;;;;;;;35.58;14.70;;;;;;;16.09;85.79;101623.41;5080935;28;20017;-66
2022/10/30 10:31:51;;;;;;;33.00;15.18;;;;;;;16.25;85.06;101620.94;5065249;28;20028;-66
2022/10/30 10:34:39;;;;;;;36.80;14.23;;;;;;;16.36;85.69;101606.19;5065190;28;20044;-66
2022/10/30 10:37:34;;;;;;;32.80;14.65;;;;;;;16.46;85.58;101613.31;5080809;28;20219;-66
2022/10/30 10:40:33;;;;;;;30.45;14.57;;;;;;;16.58;84.69;101607.31;5065298;28;20268;-66
2022/10/30 10:43:36;;;;;;;33.92;14.40;;;;;;;16.73;84.85;101601.34;5065140;28;20294;-66
2022/10/30 10:46:19;;;;;;;37.40;14.38;;;;;;;16.80;85.32;101592.66;5065263;28;20025;-66
2022/10/30 10:48:57;;;;;;;27.63;12.90;;;;;;;16.89;85.80;101594.53;5065245;28;20318;-66
2022/10/30 10:51:41;;;;;;;35.88;14.00;;;;;;;16.99;86.66;101599.00;5065029;28;20029;-66
2022/10/30 10:54:20;;;;;;;27.70;12.95;;;;;;;17.14;84.24;101606.16;5064984;28;20025;-66
2022/10/30 10:56:48;;;;;;;27.27;13.00;;;;;;;17.28;83.07;101605.38;5064916;28;20041;-66
2022/10/30 10:59:35;;;;;;;31.40;13.02;;;;;;;17.37;82.76;101608.09;5064896;28;20028;-66
2022/10/30 11:02:04;;;;;;;28.17;12.43;;;;;;;17.49;80.58;101613.44;5065059;28;20183;-66
2022/10/30 11:04:38;;;;;;;28.17;11.95;;;;;;;17.55;79.99;101616.13;5064655;28;20033;-66
2022/10/30 11:07:18;;;;;;;31.48;12.10;;;;;;;17.64;80.77;101620.59;5064860;28;20029;-66
2022/10/30 11:09:46;;;;;;;29.85;12.00;;;;;;;17.73;77.82;101607.47;5064821;28;20020;-66
2022/10/30 11:12:11;;;;;;;27.05;11.98;;;;;;;17.80;77.19;101599.59;5064686;28;20140;-66
2022/10/30 11:14:36;;;;;;;26.52;12.00;;;;;;;17.86;77.12;101589.97;5064745;28;20041;-66
2022/10/30 11:17:41;;;;;;;25.73;11.57;;;;;;;17.96;79.59;101592.66;5080192;28;20048;-66